PWSweather.com
Personal Weather Stations
Station Observations
EDGELEY
Edgeley, Nd, Edgeley, ND 58433

Edgeley, NdEdgeley, ND 58433

Lat: 46.3599246, Lon: -98.7144392

Elevation: 1575

Station Type: Davis/Vantage Pro

www.edgeleyweather.com

High Low Average
Temperature 76.3°F24.6°C 54.1°F12.3°C 65.5°F18.6°C
Dew Point 68.4°F20.2°C 50.7°F10.4°C 60.4°F15.8°C
Winds 18.0 mph 29.0 kmh Calm Calm 3.0 mph N4.8 kmh N
Wind Gusts 28.0 mph45.1 kmh -- 8.0 mph12.9 kmh
Humidity 98% 63% 84%
Pressure 29.80 in1009.1 mb 29.50 in999.0 mb -
Precipitation 0.00 in0.0 mm - -
Hour Temp Dew Point Humidity Winds Wind Gusts Pressure Precip Precip Rate Daily Precip Total
12:00 AM 73.4°F23.0°C 68.3°F20.2°C 84% Calm Calm 3.0 mph4.8 kmh 29.58 in1001.7 mb 0.00 in0.0 mm 0.00 in0.0 mm 0.00 in0.0 mm
12:05 AM 73.4°F23.0°C 68.3°F20.2°C 84% 3.0 mph N4.8 kmh N 9.0 mph14.5 kmh 29.58 in1001.7 mb 0.00 in0.0 mm 0.00 in0.0 mm 0.00 in0.0 mm
12:10 AM 73.5°F23.1°C 68.4°F20.2°C 84% 1.0 mph N1.6 kmh N 9.0 mph14.5 kmh 29.58 in1001.7 mb 0.00 in0.0 mm 0.00 in0.0 mm 0.00 in0.0 mm
12:15 AM 73.5°F23.1°C 68.4°F20.2°C 84% 2.0 mph N3.2 kmh N 4.0 mph6.4 kmh 29.57 in1001.4 mb 0.00 in0.0 mm 0.00 in0.0 mm 0.00 in0.0 mm
12:20 AM 73.6°F23.1°C 68.5°F20.3°C 84% 5.0 mph N8.0 kmh N 11.0 mph17.7 kmh 29.57 in1001.4 mb 0.00 in0.0 mm 0.00 in0.0 mm 0.00 in0.0 mm
12:25 AM 73.6°F23.1°C 68.5°F20.3°C 84% 2.0 mph N3.2 kmh N 11.0 mph17.7 kmh 29.57 in1001.4 mb 0.00 in0.0 mm 0.00 in0.0 mm 0.00 in0.0 mm
12:30 AM 73.6°F23.1°C 68.5°F20.3°C 84% 1.0 mph N1.6 kmh N 3.0 mph4.8 kmh 29.58 in1001.7 mb 0.00 in0.0 mm 0.00 in0.0 mm 0.00 in0.0 mm
12:35 AM 73.5°F23.1°C 68.4°F20.2°C 84% 1.0 mph N1.6 kmh N 6.0 mph9.7 kmh 29.58 in1001.7 mb 0.00 in0.0 mm 0.00 in0.0 mm 0.00 in0.0 mm
12:40 AM 73.4°F23.0°C 68.3°F20.2°C 84% 5.0 mph N8.0 kmh N 8.0 mph12.9 kmh 29.57 in1001.4 mb 0.00 in0.0 mm 0.00 in0.0 mm 0.00 in0.0 mm
12:45 AM 73.4°F23.0°C 68.3°F20.2°C 84% Calm Calm -- 29.57 in1001.4 mb 0.00 in0.0 mm 0.00 in0.0 mm 0.00 in0.0 mm
12:50 AM 73.4°F23.0°C 68.3°F20.2°C 84% 3.0 mph N4.8 kmh N 6.0 mph9.7 kmh 29.57 in1001.4 mb 0.00 in0.0 mm 0.00 in0.0 mm 0.00 in0.0 mm
12:55 AM 73.3°F22.9°C 68.2°F20.1°C 84% 2.0 mph N3.2 kmh N 7.0 mph11.3 kmh 29.56 in1001.0 mb 0.00 in0.0 mm 0.00 in0.0 mm 0.00 in0.0 mm
01:00 AM 73.3°F22.9°C 68.2°F20.1°C 84% 6.0 mph N9.7 kmh N 6.0 mph9.7 kmh 29.56 in1001.0 mb 0.00 in0.0 mm 0.00 in0.0 mm 0.00 in0.0 mm
01:05 AM 73.3°F22.9°C 68.2°F20.1°C 84% 1.0 mph N1.6 kmh N 10.0 mph16.1 kmh 29.56 in1001.0 mb 0.00 in0.0 mm 0.00 in0.0 mm 0.00 in0.0 mm
01:10 AM 73.2°F22.9°C 68.1°F20.1°C 84% 2.0 mph N3.2 kmh N 10.0 mph16.1 kmh 29.56 in1001.0 mb 0.00 in0.0 mm 0.00 in0.0 mm 0.00 in0.0 mm
01:15 AM 73.2°F22.9°C 68.4°F20.2°C 85% 2.0 mph N3.2 kmh N 7.0 mph11.3 kmh 29.56 in1001.0 mb 0.00 in0.0 mm 0.00 in0.0 mm 0.00 in0.0 mm
01:20 AM 73.2°F22.9°C 68.4°F20.2°C 85% 3.0 mph N4.8 kmh N 12.0 mph19.3 kmh 29.56 in1001.0 mb 0.00 in0.0 mm 0.00 in0.0 mm 0.00 in0.0 mm
01:25 AM 73.2°F22.9°C 68.1°F20.1°C 84% 2.0 mph N3.2 kmh N 13.0 mph20.9 kmh 29.55 in1000.7 mb 0.00 in0.0 mm 0.00 in0.0 mm 0.00 in0.0 mm
01:30 AM 73.2°F22.9°C 68.4°F20.2°C 85% 2.0 mph N3.2 kmh N 5.0 mph8.0 kmh 29.55 in1000.7 mb 0.00 in0.0 mm 0.00 in0.0 mm 0.00 in0.0 mm
01:35 AM 73.1°F22.8°C 68.3°F20.2°C 85% 3.0 mph N4.8 kmh N 13.0 mph20.9 kmh 29.55 in1000.7 mb 0.00 in0.0 mm 0.00 in0.0 mm 0.00 in0.0 mm
01:40 AM 73.1°F22.8°C 68.0°F20.0°C 84% 11.0 mph N17.7 kmh N 14.0 mph22.5 kmh 29.55 in1000.7 mb 0.00 in0.0 mm 0.00 in0.0 mm 0.00 in0.0 mm
01:45 AM 73.1°F22.8°C 68.0°F20.0°C 84% 3.0 mph N4.8 kmh N 7.0 mph11.3 kmh 29.54 in1000.3 mb 0.00 in0.0 mm 0.00 in0.0 mm 0.00 in0.0 mm
01:50 AM 73.1°F22.8°C 68.0°F20.0°C 84% Calm Calm 13.0 mph20.9 kmh 29.54 in1000.3 mb 0.00 in0.0 mm 0.00 in0.0 mm 0.00 in0.0 mm
01:55 AM 73.0°F22.8°C 67.9°F19.9°C 84% 7.0 mph N11.3 kmh N 13.0 mph20.9 kmh 29.53 in1000.0 mb 0.00 in0.0 mm 0.00 in0.0 mm 0.00 in0.0 mm
02:00 AM 72.9°F22.7°C 67.8°F19.9°C 84% 6.0 mph N9.7 kmh N 8.0 mph12.9 kmh 29.53 in1000.0 mb 0.00 in0.0 mm 0.00 in0.0 mm 0.00 in0.0 mm
02:05 AM 72.9°F22.7°C 67.8°F19.9°C 84% 9.0 mph N14.5 kmh N 12.0 mph19.3 kmh 29.53 in1000.0 mb 0.00 in0.0 mm 0.00 in0.0 mm 0.00 in0.0 mm
02:10 AM 72.8°F22.7°C 68.0°F20.0°C 85% 1.0 mph N1.6 kmh N 12.0 mph19.3 kmh 29.54 in1000.3 mb 0.00 in0.0 mm 0.00 in0.0 mm 0.00 in0.0 mm
02:15 AM 72.6°F22.6°C 67.8°F19.9°C 85% 4.0 mph N6.4 kmh N 5.0 mph8.0 kmh 29.54 in1000.3 mb 0.00 in0.0 mm 0.00 in0.0 mm 0.00 in0.0 mm
02:20 AM 72.5°F22.5°C 67.7°F19.8°C 85% 4.0 mph N6.4 kmh N 9.0 mph14.5 kmh 29.54 in1000.3 mb 0.00 in0.0 mm 0.00 in0.0 mm 0.00 in0.0 mm
02:25 AM 72.2°F22.3°C 67.8°F19.9°C 86% Calm Calm 9.0 mph14.5 kmh 29.54 in1000.3 mb 0.00 in0.0 mm 0.00 in0.0 mm 0.00 in0.0 mm
02:30 AM 72.1°F22.3°C 67.7°F19.8°C 86% 4.0 mph N6.4 kmh N 5.0 mph8.0 kmh 29.54 in1000.3 mb 0.00 in0.0 mm 0.00 in0.0 mm 0.00 in0.0 mm
02:35 AM 72.0°F22.2°C 67.6°F19.8°C 86% 3.0 mph N4.8 kmh N 10.0 mph16.1 kmh 29.54 in1000.3 mb 0.00 in0.0 mm 0.00 in0.0 mm 0.00 in0.0 mm
02:40 AM 72.0°F22.2°C 67.6°F19.8°C 86% 5.0 mph N8.0 kmh N 11.0 mph17.7 kmh 29.54 in1000.3 mb 0.00 in0.0 mm 0.00 in0.0 mm 0.00 in0.0 mm
02:45 AM 71.9°F22.2°C 67.8°F19.9°C 87% Calm Calm 5.0 mph8.0 kmh 29.54 in1000.3 mb 0.00 in0.0 mm 0.00 in0.0 mm 0.00 in0.0 mm
02:50 AM 71.7°F22.1°C 67.6°F19.8°C 87% Calm Calm 14.0 mph22.5 kmh 29.54 in1000.3 mb 0.00 in0.0 mm 0.00 in0.0 mm 0.00 in0.0 mm
02:55 AM 71.7°F22.1°C 67.6°F19.8°C 87% 2.0 mph N3.2 kmh N 14.0 mph22.5 kmh 29.55 in1000.7 mb 0.00 in0.0 mm 0.00 in0.0 mm 0.00 in0.0 mm
03:00 AM 71.7°F22.1°C 67.6°F19.8°C 87% 5.0 mph N8.0 kmh N 9.0 mph14.5 kmh 29.54 in1000.3 mb 0.00 in0.0 mm 0.00 in0.0 mm 0.00 in0.0 mm
03:05 AM 71.7°F22.1°C 67.6°F19.8°C 87% 1.0 mph N1.6 kmh N 9.0 mph14.5 kmh 29.54 in1000.3 mb 0.00 in0.0 mm 0.00 in0.0 mm 0.00 in0.0 mm
03:10 AM 71.6°F22.0°C 67.5°F19.7°C 87% 6.0 mph N9.7 kmh N 9.0 mph14.5 kmh 29.54 in1000.3 mb 0.00 in0.0 mm 0.00 in0.0 mm 0.00 in0.0 mm
03:15 AM 71.5°F21.9°C 67.4°F19.7°C 87% Calm Calm 2.0 mph3.2 kmh 29.54 in1000.3 mb 0.00 in0.0 mm 0.00 in0.0 mm 0.00 in0.0 mm
03:20 AM 71.4°F21.9°C 67.7°F19.8°C 88% 3.0 mph N4.8 kmh N 9.0 mph14.5 kmh 29.54 in1000.3 mb 0.00 in0.0 mm 0.00 in0.0 mm 0.00 in0.0 mm
03:25 AM 71.3°F21.8°C 67.6°F19.8°C 88% 1.0 mph N1.6 kmh N 10.0 mph16.1 kmh 29.54 in1000.3 mb 0.00 in0.0 mm 0.00 in0.0 mm 0.00 in0.0 mm
03:28 AM 71.2°F21.8°C 67.5°F19.7°C 88% 1.0 mph N1.6 kmh N 10.0 mph16.1 kmh 29.53 in1000.0 mb 0.00 in0.0 mm 0.00 in0.0 mm 0.00 in0.0 mm
03:35 AM 71.1°F21.7°C 67.7°F19.8°C 89% 1.0 mph N1.6 kmh N 3.0 mph4.8 kmh 29.54 in1000.3 mb 0.00 in0.0 mm 0.00 in0.0 mm 0.00 in0.0 mm
03:40 AM 71.0°F21.7°C 67.6°F19.8°C 89% Calm Calm 4.0 mph6.4 kmh 29.54 in1000.3 mb 0.00 in0.0 mm 0.00 in0.0 mm 0.00 in0.0 mm
03:45 AM 70.9°F21.6°C 67.5°F19.7°C 89% Calm Calm 7.0 mph11.3 kmh 29.54 in1000.3 mb 0.00 in0.0 mm 0.00 in0.0 mm 0.00 in0.0 mm
03:50 AM 70.9°F21.6°C 67.5°F19.7°C 89% Calm Calm 7.0 mph11.3 kmh 29.54 in1000.3 mb 0.00 in0.0 mm 0.00 in0.0 mm 0.00 in0.0 mm
03:55 AM 70.8°F21.6°C 67.7°F19.8°C 90% 2.0 mph N3.2 kmh N 7.0 mph11.3 kmh 29.55 in1000.7 mb 0.00 in0.0 mm 0.00 in0.0 mm 0.00 in0.0 mm
04:00 AM 70.8°F21.6°C 67.7°F19.8°C 90% 1.0 mph N1.6 kmh N 4.0 mph6.4 kmh 29.55 in1000.7 mb 0.00 in0.0 mm 0.00 in0.0 mm 0.00 in0.0 mm
04:05 AM 70.6°F21.4°C 67.9°F19.9°C 91% 3.0 mph N4.8 kmh N 9.0 mph14.5 kmh 29.56 in1001.0 mb 0.00 in0.0 mm 0.00 in0.0 mm 0.00 in0.0 mm
04:10 AM 69.1°F20.6°C 64.4°F18.0°C 85% 1.0 mph N1.6 kmh N 11.0 mph17.7 kmh 29.56 in1001.0 mb 0.00 in0.0 mm 0.00 in0.0 mm 0.00 in0.0 mm
04:15 AM 67.6°F19.8°C 63.3°F17.4°C 86% 7.0 mph N11.3 kmh N 7.0 mph11.3 kmh 29.57 in1001.4 mb 0.01 in0.3 mm 0.12 in3.0 mm 0.01 in0.3 mm
04:20 AM 66.1°F18.9°C 62.5°F16.9°C 88% 3.0 mph N4.8 kmh N 8.0 mph12.9 kmh 29.59 in1002.0 mb 0.04 in1.0 mm 0.36 in9.1 mm 0.04 in1.0 mm
04:25 AM 64.8°F18.2°C 61.5°F16.4°C 89% Calm Calm 8.0 mph12.9 kmh 29.59 in1002.0 mb 0.11 in2.8 mm 0.84 in21.3 mm 0.11 in2.8 mm
04:30 AM 64.3°F17.9°C 61.6°F16.4°C 91% 5.0 mph N8.0 kmh N 6.0 mph9.7 kmh 29.59 in1002.0 mb 0.13 in3.3 mm 0.24 in6.1 mm 0.13 in3.3 mm
04:35 AM 63.6°F17.6°C 61.2°F16.2°C 92% 2.0 mph N3.2 kmh N 9.0 mph14.5 kmh 29.58 in1001.7 mb 0.14 in3.6 mm 0.12 in3.0 mm 0.14 in3.6 mm
04:40 AM 63.2°F17.3°C 61.2°F16.2°C 93% Calm Calm 9.0 mph14.5 kmh 29.56 in1001.0 mb 0.16 in4.1 mm 0.24 in6.1 mm 0.16 in4.1 mm
04:45 AM 62.8°F17.1°C 60.8°F16.0°C 93% Calm Calm 8.0 mph12.9 kmh 29.57 in1001.4 mb 0.16 in4.1 mm 0.00 in0.0 mm 0.16 in4.1 mm
04:50 AM 62.6°F17.0°C 61.5°F16.4°C 96% 1.0 mph N1.6 kmh N 8.0 mph12.9 kmh 29.57 in1001.4 mb 0.16 in4.1 mm 0.00 in0.0 mm 0.16 in4.1 mm
04:55 AM 62.3°F16.8°C 60.6°F15.9°C 94% 1.0 mph N1.6 kmh N 8.0 mph12.9 kmh 29.57 in1001.4 mb 0.16 in4.1 mm 0.00 in0.0 mm 0.16 in4.1 mm
05:00 AM 62.0°F16.7°C 60.3°F15.7°C 94% Calm Calm -- 29.58 in1001.7 mb 0.16 in4.1 mm 0.00 in0.0 mm 0.16 in4.1 mm
05:05 AM 61.9°F16.6°C 60.2°F15.7°C 94% 1.0 mph N1.6 kmh N 7.0 mph11.3 kmh 29.58 in1001.7 mb 0.18 in4.6 mm 0.24 in6.1 mm 0.18 in4.6 mm
05:10 AM 61.8°F16.6°C 60.4°F15.8°C 95% Calm Calm 7.0 mph11.3 kmh 29.58 in1001.7 mb 0.19 in4.8 mm 0.12 in3.0 mm 0.19 in4.8 mm
05:15 AM 61.7°F16.5°C 60.3°F15.7°C 95% 2.0 mph N3.2 kmh N 2.0 mph3.2 kmh 29.56 in1001.0 mb 0.18 in4.6 mm 0.00 in0.0 mm 0.19 in4.8 mm
05:20 AM 61.7°F16.5°C 60.3°F15.7°C 95% Calm Calm 5.0 mph8.0 kmh 29.55 in1000.7 mb 0.19 in4.8 mm 0.12 in3.0 mm 0.20 in5.1 mm
05:25 AM 61.6°F16.4°C 60.2°F15.7°C 95% 1.0 mph N1.6 kmh N 5.0 mph8.0 kmh 29.55 in1000.7 mb 0.20 in5.1 mm 0.12 in3.0 mm 0.21 in5.3 mm
05:30 AM 61.5°F16.4°C 60.1°F15.6°C 95% 3.0 mph N4.8 kmh N 6.0 mph9.7 kmh 29.53 in1000.0 mb 0.09 in2.3 mm 0.00 in0.0 mm 0.21 in5.3 mm
05:35 AM 61.4°F16.3°C 60.0°F15.6°C 95% 2.0 mph N3.2 kmh N 12.0 mph19.3 kmh 29.50 in999.0 mb 0.09 in2.3 mm 0.00 in0.0 mm 0.21 in5.3 mm
05:40 AM 61.3°F16.3°C 59.9°F15.5°C 95% Calm Calm 12.0 mph19.3 kmh 29.52 in999.7 mb 0.09 in2.3 mm 0.00 in0.0 mm 0.21 in5.3 mm
05:45 AM 61.3°F16.3°C 59.9°F15.5°C 95% 6.0 mph N9.7 kmh N 6.0 mph9.7 kmh 29.53 in1000.0 mb 0.05 in1.3 mm 0.00 in0.0 mm 0.21 in5.3 mm
05:50 AM 61.3°F16.3°C 60.2°F15.7°C 96% Calm Calm 7.0 mph11.3 kmh 29.51 in999.3 mb 0.05 in1.3 mm 0.00 in0.0 mm 0.21 in5.3 mm
05:55 AM 61.3°F16.3°C 60.2°F15.7°C 96% Calm Calm 7.0 mph11.3 kmh 29.54 in1000.3 mb 0.05 in1.3 mm 0.00 in0.0 mm 0.21 in5.3 mm
06:00 AM 61.3°F16.3°C 60.2°F15.7°C 96% Calm Calm -- 29.53 in1000.0 mb 0.05 in1.3 mm 0.00 in0.0 mm 0.21 in5.3 mm
06:05 AM 61.3°F16.3°C 60.2°F15.7°C 96% Calm Calm 3.0 mph4.8 kmh 29.53 in1000.0 mb 0.05 in1.3 mm 0.00 in0.0 mm 0.21 in5.3 mm
06:10 AM 61.3°F16.3°C 60.2°F15.7°C 96% Calm Calm 4.0 mph6.4 kmh 29.53 in1000.0 mb 0.05 in1.3 mm 0.00 in0.0 mm 0.21 in5.3 mm
06:15 AM 61.2°F16.2°C 60.1°F15.6°C 96% Calm Calm -- 29.53 in1000.0 mb 0.02 in0.5 mm 0.00 in0.0 mm 0.21 in5.3 mm
06:20 AM 61.2°F16.2°C 60.1°F15.6°C 96% Calm Calm -- 29.54 in1000.3 mb 0.02 in0.5 mm 0.00 in0.0 mm 0.21 in5.3 mm
06:25 AM 61.1°F16.2°C 60.0°F15.6°C 96% Calm Calm 1.0 mph1.6 kmh 29.54 in1000.3 mb 0.02 in0.5 mm 0.00 in0.0 mm 0.21 in5.3 mm
06:30 AM 61.1°F16.2°C 60.0°F15.6°C 96% Calm Calm -- 29.53 in1000.0 mb 0.00 in0.0 mm 0.00 in0.0 mm 0.21 in5.3 mm
06:31 AM 61.1°F16.2°C 60.0°F15.6°C 96% Calm Calm -- 29.53 in1000.0 mb 0.00 in0.0 mm 0.00 in0.0 mm 0.21 in5.3 mm
06:35 AM 61.1°F16.2°C 60.0°F15.6°C 96% Calm Calm -- 29.53 in1000.0 mb 0.00 in0.0 mm 0.00 in0.0 mm 0.21 in5.3 mm
06:40 AM 61.0°F16.1°C 59.9°F15.5°C 96% Calm Calm -- 29.53 in1000.0 mb 0.00 in0.0 mm 0.00 in0.0 mm 0.21 in5.3 mm
06:45 AM 60.9°F16.1°C 59.8°F15.4°C 96% Calm Calm -- 29.53 in1000.0 mb 0.00 in0.0 mm 0.00 in0.0 mm 0.21 in5.3 mm
06:50 AM 60.8°F16.0°C 59.7°F15.4°C 96% Calm Calm -- 29.52 in999.7 mb 0.00 in0.0 mm 0.00 in0.0 mm 0.21 in5.3 mm
06:55 AM 60.6°F15.9°C 59.5°F15.3°C 96% Calm Calm -- 29.52 in999.7 mb 0.00 in0.0 mm 0.00 in0.0 mm 0.21 in5.3 mm
07:00 AM 60.4°F15.8°C 59.3°F15.2°C 96% Calm Calm -- 29.53 in1000.0 mb 0.00 in0.0 mm 0.00 in0.0 mm 0.21 in5.3 mm
07:05 AM 60.3°F15.7°C 59.2°F15.1°C 96% Calm Calm -- 29.53 in1000.0 mb 0.00 in0.0 mm 0.00 in0.0 mm 0.21 in5.3 mm
07:10 AM 60.2°F15.7°C 59.1°F15.1°C 96% Calm Calm -- 29.54 in1000.3 mb 0.00 in0.0 mm 0.00 in0.0 mm 0.21 in5.3 mm
07:15 AM 60.2°F15.7°C 59.1°F15.1°C 96% Calm Calm -- 29.54 in1000.3 mb 0.00 in0.0 mm 0.00 in0.0 mm 0.21 in5.3 mm
07:20 AM 60.1°F15.6°C 59.0°F15.0°C 96% Calm Calm -- 29.54 in1000.3 mb 0.00 in0.0 mm 0.00 in0.0 mm 0.21 in5.3 mm
07:25 AM 60.0°F15.6°C 58.9°F14.9°C 96% Calm Calm -- 29.54 in1000.3 mb 0.00 in0.0 mm 0.00 in0.0 mm 0.21 in5.3 mm
07:30 AM 59.9°F15.5°C 58.8°F14.9°C 96% Calm Calm -- 29.54 in1000.3 mb 0.00 in0.0 mm 0.00 in0.0 mm 0.21 in5.3 mm
07:35 AM 59.7°F15.4°C 58.6°F14.8°C 96% Calm Calm -- 29.54 in1000.3 mb 0.00 in0.0 mm 0.00 in0.0 mm 0.21 in5.3 mm
07:40 AM 59.6°F15.3°C 58.5°F14.7°C 96% Calm Calm -- 29.53 in1000.0 mb 0.00 in0.0 mm 0.00 in0.0 mm 0.21 in5.3 mm
07:45 AM 59.5°F15.3°C 58.4°F14.7°C 96% Calm Calm -- 29.53 in1000.0 mb 0.00 in0.0 mm 0.00 in0.0 mm 0.21 in5.3 mm
07:50 AM 59.5°F15.3°C 58.7°F14.8°C 97% Calm Calm 1.0 mph1.6 kmh 29.52 in999.7 mb 0.00 in0.0 mm 0.00 in0.0 mm 0.21 in5.3 mm
07:55 AM 59.5°F15.3°C 58.7°F14.8°C 97% Calm Calm 1.0 mph1.6 kmh 29.52 in999.7 mb 0.00 in0.0 mm 0.00 in0.0 mm 0.21 in5.3 mm
08:00 AM 59.6°F15.3°C 58.8°F14.9°C 97% Calm Calm -- 29.52 in999.7 mb 0.00 in0.0 mm 0.00 in0.0 mm 0.21 in5.3 mm
08:05 AM 59.7°F15.4°C 58.9°F14.9°C 97% Calm Calm -- 29.52 in999.7 mb 0.00 in0.0 mm 0.00 in0.0 mm 0.21 in5.3 mm
08:10 AM 59.8°F15.4°C 59.0°F15.0°C 97% Calm Calm -- 29.52 in999.7 mb 0.00 in0.0 mm 0.00 in0.0 mm 0.21 in5.3 mm
08:15 AM 60.1°F15.6°C 59.3°F15.2°C 97% Calm Calm -- 29.52 in999.7 mb 0.00 in0.0 mm 0.00 in0.0 mm 0.21 in5.3 mm
08:20 AM 60.3°F15.7°C 59.5°F15.3°C 97% Calm Calm 3.0 mph4.8 kmh 29.52 in999.7 mb 0.00 in0.0 mm 0.00 in0.0 mm 0.21 in5.3 mm
08:25 AM 60.4°F15.8°C 59.6°F15.3°C 97% Calm Calm 3.0 mph4.8 kmh 29.53 in1000.0 mb 0.00 in0.0 mm 0.00 in0.0 mm 0.21 in5.3 mm
08:30 AM 60.5°F15.8°C 59.7°F15.4°C 97% Calm Calm -- 29.53 in1000.0 mb 0.00 in0.0 mm 0.00 in0.0 mm 0.21 in5.3 mm
08:35 AM 60.7°F15.9°C 59.9°F15.5°C 97% 2.0 mph N3.2 kmh N 3.0 mph4.8 kmh 29.53 in1000.0 mb 0.00 in0.0 mm 0.00 in0.0 mm 0.21 in5.3 mm
08:40 AM 60.9°F16.1°C 60.1°F15.6°C 97% Calm Calm 3.0 mph4.8 kmh 29.53 in1000.0 mb 0.00 in0.0 mm 0.00 in0.0 mm 0.21 in5.3 mm
08:45 AM 61.2°F16.2°C 60.4°F15.8°C 97% Calm Calm -- 29.54 in1000.3 mb 0.00 in0.0 mm 0.00 in0.0 mm 0.21 in5.3 mm
08:50 AM 61.4°F16.3°C 60.5°F15.8°C 97% 1.0 mph N1.6 kmh N 3.0 mph4.8 kmh 29.53 in1000.0 mb 0.00 in0.0 mm 0.00 in0.0 mm 0.21 in5.3 mm
08:55 AM 61.5°F16.4°C 60.6°F15.9°C 97% Calm Calm 7.0 mph11.3 kmh 29.54 in1000.3 mb 0.00 in0.0 mm 0.00 in0.0 mm 0.21 in5.3 mm
09:00 AM 61.6°F16.4°C 60.7°F15.9°C 97% 3.0 mph N4.8 kmh N 5.0 mph8.0 kmh 29.55 in1000.7 mb 0.00 in0.0 mm 0.00 in0.0 mm 0.21 in5.3 mm
09:05 AM 61.8°F16.6°C 60.9°F16.1°C 97% Calm Calm 6.0 mph9.7 kmh 29.55 in1000.7 mb 0.00 in0.0 mm 0.00 in0.0 mm 0.21 in5.3 mm
09:10 AM 62.0°F16.7°C 61.1°F16.2°C 97% Calm Calm 6.0 mph9.7 kmh 29.56 in1001.0 mb 0.00 in0.0 mm 0.00 in0.0 mm 0.21 in5.3 mm
09:15 AM 62.2°F16.8°C 61.6°F16.4°C 98% Calm Calm -- 29.56 in1001.0 mb 0.00 in0.0 mm 0.00 in0.0 mm 0.21 in5.3 mm
09:20 AM 62.5°F16.9°C 61.9°F16.6°C 98% Calm Calm 2.0 mph3.2 kmh 29.56 in1001.0 mb 0.00 in0.0 mm 0.00 in0.0 mm 0.21 in5.3 mm
09:25 AM 62.7°F17.1°C 62.1°F16.7°C 98% Calm Calm 2.0 mph3.2 kmh 29.56 in1001.0 mb 0.00 in0.0 mm 0.00 in0.0 mm 0.21 in5.3 mm
09:30 AM 62.9°F17.2°C 62.3°F16.8°C 98% Calm Calm -- 29.57 in1001.4 mb 0.00 in0.0 mm 0.00 in0.0 mm 0.21 in5.3 mm
09:35 AM 63.1°F17.3°C 62.2°F16.8°C 97% Calm Calm 2.0 mph3.2 kmh 29.57 in1001.4 mb 0.00 in0.0 mm 0.00 in0.0 mm 0.21 in5.3 mm
09:40 AM 63.3°F17.4°C 62.7°F17.1°C 98% Calm Calm 4.0 mph6.4 kmh 29.57 in1001.4 mb 0.00 in0.0 mm 0.00 in0.0 mm 0.21 in5.3 mm
09:45 AM 63.5°F17.5°C 62.9°F17.2°C 98% 1.0 mph N1.6 kmh N 1.0 mph1.6 kmh 29.57 in1001.4 mb 0.00 in0.0 mm 0.00 in0.0 mm 0.21 in5.3 mm
09:50 AM 63.6°F17.6°C 62.7°F17.1°C 97% Calm Calm 10.0 mph16.1 kmh 29.57 in1001.4 mb 0.00 in0.0 mm 0.00 in0.0 mm 0.21 in5.3 mm
09:55 AM 63.7°F17.6°C 62.8°F17.1°C 97% 1.0 mph N1.6 kmh N 11.0 mph17.7 kmh 29.57 in1001.4 mb 0.00 in0.0 mm 0.00 in0.0 mm 0.21 in5.3 mm
10:00 AM 63.9°F17.7°C 63.0°F17.2°C 97% Calm Calm 1.0 mph1.6 kmh 29.57 in1001.4 mb 0.00 in0.0 mm 0.00 in0.0 mm 0.21 in5.3 mm
10:05 AM 64.1°F17.8°C 63.2°F17.3°C 97% Calm Calm 5.0 mph8.0 kmh 29.56 in1001.0 mb 0.00 in0.0 mm 0.00 in0.0 mm 0.21 in5.3 mm
10:10 AM 64.3°F17.9°C 63.1°F17.3°C 96% 6.0 mph N9.7 kmh N 12.0 mph19.3 kmh 29.57 in1001.4 mb 0.00 in0.0 mm 0.00 in0.0 mm 0.21 in5.3 mm
10:15 AM 64.4°F18.0°C 63.2°F17.3°C 96% 2.0 mph N3.2 kmh N 5.0 mph8.0 kmh 29.57 in1001.4 mb 0.00 in0.0 mm 0.00 in0.0 mm 0.21 in5.3 mm
10:20 AM 64.6°F18.1°C 63.1°F17.3°C 95% 3.0 mph N4.8 kmh N 10.0 mph16.1 kmh 29.57 in1001.4 mb 0.00 in0.0 mm 0.00 in0.0 mm 0.21 in5.3 mm
10:25 AM 64.9°F18.3°C 63.4°F17.4°C 95% 3.0 mph N4.8 kmh N 13.0 mph20.9 kmh 29.56 in1001.0 mb 0.00 in0.0 mm 0.00 in0.0 mm 0.21 in5.3 mm
10:30 AM 65.1°F18.4°C 63.0°F17.2°C 93% Calm Calm 2.0 mph3.2 kmh 29.57 in1001.4 mb 0.00 in0.0 mm 0.00 in0.0 mm 0.21 in5.3 mm
10:35 AM 65.5°F18.6°C 63.4°F17.4°C 93% 6.0 mph N9.7 kmh N 10.0 mph16.1 kmh 29.57 in1001.4 mb 0.00 in0.0 mm 0.00 in0.0 mm 0.21 in5.3 mm
10:40 AM 65.8°F18.8°C 63.1°F17.3°C 91% 5.0 mph N8.0 kmh N 13.0 mph20.9 kmh 29.57 in1001.4 mb 0.00 in0.0 mm 0.00 in0.0 mm 0.21 in5.3 mm
10:45 AM 66.0°F18.9°C 63.0°F17.2°C 90% Calm Calm 2.0 mph3.2 kmh 29.57 in1001.4 mb 0.00 in0.0 mm 0.00 in0.0 mm 0.21 in5.3 mm
10:50 AM 66.5°F19.2°C 63.5°F17.5°C 90% 1.0 mph N1.6 kmh N 6.0 mph9.7 kmh 29.57 in1001.4 mb 0.00 in0.0 mm 0.00 in0.0 mm 0.21 in5.3 mm
10:55 AM 67.0°F19.4°C 63.7°F17.6°C 89% Calm Calm 6.0 mph9.7 kmh 29.57 in1001.4 mb 0.00 in0.0 mm 0.00 in0.0 mm 0.21 in5.3 mm
11:00 AM 67.2°F19.6°C 63.2°F17.3°C 87% Calm Calm 15.0 mph24.1 kmh 29.57 in1001.4 mb 0.00 in0.0 mm 0.00 in0.0 mm 0.21 in5.3 mm
11:05 AM 67.5°F19.7°C 62.8°F17.1°C 85% 3.0 mph N4.8 kmh N 15.0 mph24.1 kmh 29.57 in1001.4 mb 0.00 in0.0 mm 0.00 in0.0 mm 0.21 in5.3 mm
11:10 AM 67.7°F19.8°C 63.0°F17.2°C 85% 2.0 mph N3.2 kmh N 15.0 mph24.1 kmh 29.57 in1001.4 mb 0.00 in0.0 mm 0.00 in0.0 mm 0.21 in5.3 mm
11:15 AM 68.1°F20.1°C 63.8°F17.7°C 86% Calm Calm 2.0 mph3.2 kmh 29.57 in1001.4 mb 0.00 in0.0 mm 0.00 in0.0 mm 0.21 in5.3 mm
11:20 AM 68.4°F20.2°C 63.4°F17.4°C 84% 2.0 mph N3.2 kmh N 11.0 mph17.7 kmh 29.57 in1001.4 mb 0.00 in0.0 mm 0.00 in0.0 mm 0.21 in5.3 mm
11:25 AM 68.7°F20.4°C 63.7°F17.6°C 84% Calm Calm 11.0 mph17.7 kmh 29.57 in1001.4 mb 0.00 in0.0 mm 0.00 in0.0 mm 0.21 in5.3 mm
11:30 AM 69.1°F20.6°C 63.0°F17.2°C 81% 3.0 mph N4.8 kmh N 5.0 mph8.0 kmh 29.57 in1001.4 mb 0.00 in0.0 mm 0.00 in0.0 mm 0.21 in5.3 mm
11:35 AM 69.4°F20.8°C 63.0°F17.2°C 80% 5.0 mph N8.0 kmh N 10.0 mph16.1 kmh 29.56 in1001.0 mb 0.01 in0.3 mm 0.12 in3.0 mm 0.22 in5.6 mm
11:40 AM 69.6°F20.9°C 63.2°F17.3°C 80% 1.0 mph N1.6 kmh N 12.0 mph19.3 kmh 29.56 in1001.0 mb 0.01 in0.3 mm 0.00 in0.0 mm 0.22 in5.6 mm
11:45 AM 69.9°F21.1°C 63.5°F17.5°C 80% 7.0 mph N11.3 kmh N 8.0 mph12.9 kmh 29.56 in1001.0 mb 0.01 in0.3 mm 0.00 in0.0 mm 0.22 in5.6 mm
11:50 AM 70.4°F21.3°C 63.6°F17.6°C 79% 1.0 mph N1.6 kmh N 11.0 mph17.7 kmh 29.56 in1001.0 mb 0.01 in0.3 mm 0.00 in0.0 mm 0.22 in5.6 mm
11:55 AM 70.8°F21.6°C 63.6°F17.6°C 78% 4.0 mph N6.4 kmh N 11.0 mph17.7 kmh 29.56 in1001.0 mb 0.01 in0.3 mm 0.00 in0.0 mm 0.22 in5.6 mm
12:00 PM 71.1°F21.7°C 63.9°F17.7°C 78% 3.0 mph N4.8 kmh N 5.0 mph8.0 kmh 29.56 in1001.0 mb 0.01 in0.3 mm 0.00 in0.0 mm 0.22 in5.6 mm
12:05 PM 71.4°F21.9°C 63.8°F17.7°C 77% 3.0 mph N4.8 kmh N 9.0 mph14.5 kmh 29.56 in1001.0 mb 0.01 in0.3 mm 0.00 in0.0 mm 0.22 in5.6 mm
12:10 PM 71.5°F21.9°C 63.9°F17.7°C 77% 8.0 mph N12.9 kmh N 12.0 mph19.3 kmh 29.56 in1001.0 mb 0.01 in0.3 mm 0.00 in0.0 mm 0.22 in5.6 mm
12:15 PM 71.7°F22.1°C 63.7°F17.6°C 76% 11.0 mph N17.7 kmh N 16.0 mph25.7 kmh 29.56 in1001.0 mb 0.01 in0.3 mm 0.00 in0.0 mm 0.22 in5.6 mm
12:20 PM 71.9°F22.2°C 63.6°F17.6°C 75% 5.0 mph N8.0 kmh N 16.0 mph25.7 kmh 29.56 in1001.0 mb 0.01 in0.3 mm 0.00 in0.0 mm 0.22 in5.6 mm
12:25 PM 72.1°F22.3°C 63.8°F17.7°C 75% 6.0 mph N9.7 kmh N 16.0 mph25.7 kmh 29.56 in1001.0 mb 0.01 in0.3 mm 0.00 in0.0 mm 0.22 in5.6 mm
12:30 PM 72.4°F22.4°C 63.7°F17.6°C 74% 7.0 mph N11.3 kmh N 10.0 mph16.1 kmh 29.56 in1001.0 mb 0.01 in0.3 mm 0.00 in0.0 mm 0.22 in5.6 mm
12:35 PM 72.6°F22.6°C 63.5°F17.5°C 73% 2.0 mph N3.2 kmh N 15.0 mph24.1 kmh 29.56 in1001.0 mb 0.01 in0.3 mm 0.00 in0.0 mm 0.22 in5.6 mm
12:40 PM 72.5°F22.5°C 63.8°F17.7°C 74% 10.0 mph N16.1 kmh N 15.0 mph24.1 kmh 29.56 in1001.0 mb 0.01 in0.3 mm 0.00 in0.0 mm 0.22 in5.6 mm
12:45 PM 72.8°F22.7°C 64.0°F17.8°C 74% 15.0 mph N24.1 kmh N 15.0 mph24.1 kmh 29.56 in1001.0 mb 0.00 in0.0 mm 0.00 in0.0 mm 0.22 in5.6 mm
12:50 PM 73.0°F22.8°C 63.8°F17.7°C 73% 6.0 mph N9.7 kmh N 15.0 mph24.1 kmh 29.56 in1001.0 mb 0.00 in0.0 mm 0.00 in0.0 mm 0.22 in5.6 mm
12:55 PM 73.4°F23.0°C 63.8°F17.7°C 72% 1.0 mph N1.6 kmh N 16.0 mph25.7 kmh 29.56 in1001.0 mb 0.00 in0.0 mm 0.00 in0.0 mm 0.22 in5.6 mm
01:00 PM 73.7°F23.2°C 63.3°F17.4°C 70% 6.0 mph N9.7 kmh N 11.0 mph17.7 kmh 29.56 in1001.0 mb 0.00 in0.0 mm 0.00 in0.0 mm 0.22 in5.6 mm
01:05 PM 74.2°F23.4°C 64.6°F18.1°C 72% 5.0 mph N8.0 kmh N 13.0 mph20.9 kmh 29.56 in1001.0 mb 0.00 in0.0 mm 0.00 in0.0 mm 0.22 in5.6 mm
01:10 PM 74.4°F23.6°C 63.6°F17.6°C 69% 8.0 mph N12.9 kmh N 13.0 mph20.9 kmh 29.56 in1001.0 mb 0.00 in0.0 mm 0.00 in0.0 mm 0.22 in5.6 mm
01:15 PM 74.4°F23.6°C 63.6°F17.6°C 69% 6.0 mph N9.7 kmh N 11.0 mph17.7 kmh 29.56 in1001.0 mb 0.00 in0.0 mm 0.00 in0.0 mm 0.22 in5.6 mm
01:20 PM 74.4°F23.6°C 63.6°F17.6°C 69% Calm Calm 18.0 mph29.0 kmh 29.56 in1001.0 mb 0.00 in0.0 mm 0.00 in0.0 mm 0.22 in5.6 mm
01:25 PM 74.4°F23.6°C 62.3°F16.8°C 66% 7.0 mph N11.3 kmh N 18.0 mph29.0 kmh 29.56 in1001.0 mb 0.00 in0.0 mm 0.00 in0.0 mm 0.22 in5.6 mm
01:30 PM 74.5°F23.6°C 62.8°F17.1°C 67% 9.0 mph N14.5 kmh N 9.0 mph14.5 kmh 29.56 in1001.0 mb 0.00 in0.0 mm 0.00 in0.0 mm 0.22 in5.6 mm
01:35 PM 74.4°F23.6°C 62.3°F16.8°C 66% 3.0 mph N4.8 kmh N 17.0 mph27.4 kmh 29.56 in1001.0 mb 0.00 in0.0 mm 0.00 in0.0 mm 0.22 in5.6 mm
01:40 PM 74.8°F23.8°C 63.1°F17.3°C 67% 4.0 mph N6.4 kmh N 17.0 mph27.4 kmh 29.56 in1001.0 mb 0.00 in0.0 mm 0.00 in0.0 mm 0.22 in5.6 mm
01:45 PM 75.1°F23.9°C 62.5°F16.9°C 65% 11.0 mph N17.7 kmh N 11.0 mph17.7 kmh 29.56 in1001.0 mb 0.00 in0.0 mm 0.00 in0.0 mm 0.22 in5.6 mm
01:50 PM 75.2°F24.0°C 62.2°F16.8°C 64% 4.0 mph N6.4 kmh N 15.0 mph24.1 kmh 29.56 in1001.0 mb 0.00 in0.0 mm 0.00 in0.0 mm 0.22 in5.6 mm
01:55 PM 75.4°F24.1°C 61.9°F16.6°C 63% 6.0 mph N9.7 kmh N 15.0 mph24.1 kmh 29.57 in1001.4 mb 0.00 in0.0 mm 0.00 in0.0 mm 0.22 in5.6 mm
02:00 PM 75.2°F24.0°C 61.8°F16.6°C 63% 4.0 mph N6.4 kmh N 8.0 mph12.9 kmh 29.57 in1001.4 mb 0.00 in0.0 mm 0.00 in0.0 mm 0.22 in5.6 mm
02:05 PM 75.2°F24.0°C 63.1°F17.3°C 66% 5.0 mph N8.0 kmh N 16.0 mph25.7 kmh 29.57 in1001.4 mb 0.00 in0.0 mm 0.00 in0.0 mm 0.22 in5.6 mm
02:10 PM 75.7°F24.3°C 62.2°F16.8°C 63% 3.0 mph N4.8 kmh N 16.0 mph25.7 kmh 29.57 in1001.4 mb 0.00 in0.0 mm 0.00 in0.0 mm 0.22 in5.6 mm
02:15 PM 76.2°F24.6°C 63.1°F17.3°C 64% 7.0 mph N11.3 kmh N 11.0 mph17.7 kmh 29.57 in1001.4 mb 0.00 in0.0 mm 0.00 in0.0 mm 0.22 in5.6 mm
02:20 PM 76.3°F24.6°C 63.2°F17.3°C 64% 4.0 mph N6.4 kmh N 12.0 mph19.3 kmh 29.57 in1001.4 mb 0.00 in0.0 mm 0.00 in0.0 mm 0.22 in5.6 mm
02:25 PM 75.5°F24.2°C 62.5°F16.9°C 64% 4.0 mph N6.4 kmh N 16.0 mph25.7 kmh 29.57 in1001.4 mb 0.00 in0.0 mm 0.00 in0.0 mm 0.22 in5.6 mm
02:30 PM 74.9°F23.8°C 62.8°F17.1°C 66% 5.0 mph N8.0 kmh N 11.0 mph17.7 kmh 29.57 in1001.4 mb 0.00 in0.0 mm 0.00 in0.0 mm 0.22 in5.6 mm
02:35 PM 74.5°F23.6°C 62.8°F17.1°C 67% 3.0 mph N4.8 kmh N 17.0 mph27.4 kmh 29.57 in1001.4 mb 0.00 in0.0 mm 0.00 in0.0 mm 0.22 in5.6 mm
02:40 PM 74.4°F23.6°C 64.0°F17.8°C 70% 11.0 mph N17.7 kmh N 25.0 mph40.2 kmh 29.58 in1001.7 mb 0.00 in0.0 mm 0.00 in0.0 mm 0.22 in5.6 mm
02:45 PM 73.4°F23.0°C 63.8°F17.7°C 72% 4.0 mph N6.4 kmh N 11.0 mph17.7 kmh 29.58 in1001.7 mb 0.00 in0.0 mm 0.00 in0.0 mm 0.22 in5.6 mm
02:50 PM 72.5°F22.5°C 63.8°F17.7°C 74% 5.0 mph N8.0 kmh N 28.0 mph45.1 kmh 29.58 in1001.7 mb 0.00 in0.0 mm 0.00 in0.0 mm 0.22 in5.6 mm
02:55 PM 72.0°F22.2°C 62.1°F16.7°C 71% 8.0 mph N12.9 kmh N 28.0 mph45.1 kmh 29.59 in1002.0 mb 0.00 in0.0 mm 0.00 in0.0 mm 0.22 in5.6 mm
03:00 PM 71.9°F22.2°C 62.8°F17.1°C 73% 7.0 mph N11.3 kmh N 14.0 mph22.5 kmh 29.59 in1002.0 mb 0.00 in0.0 mm 0.00 in0.0 mm 0.22 in5.6 mm
03:05 PM 72.1°F22.3°C 63.0°F17.2°C 73% 10.0 mph N16.1 kmh N 19.0 mph30.6 kmh 29.59 in1002.0 mb 0.00 in0.0 mm 0.00 in0.0 mm 0.22 in5.6 mm
03:10 PM 72.0°F22.2°C 61.3°F16.3°C 69% 8.0 mph N12.9 kmh N 21.0 mph33.8 kmh 29.60 in1002.4 mb 0.00 in0.0 mm 0.00 in0.0 mm 0.22 in5.6 mm
03:15 PM 71.5°F21.9°C 62.0°F16.7°C 72% 10.0 mph N16.1 kmh N 13.0 mph20.9 kmh 29.60 in1002.4 mb 0.00 in0.0 mm 0.00 in0.0 mm 0.22 in5.6 mm
03:20 PM 71.4°F21.9°C 61.5°F16.4°C 71% 5.0 mph N8.0 kmh N 17.0 mph27.4 kmh 29.60 in1002.4 mb 0.00 in0.0 mm 0.00 in0.0 mm 0.22 in5.6 mm
03:25 PM 71.4°F21.9°C 61.1°F16.2°C 70% 9.0 mph N14.5 kmh N 23.0 mph37.0 kmh 29.60 in1002.4 mb 0.00 in0.0 mm 0.00 in0.0 mm 0.22 in5.6 mm
03:30 PM 71.5°F21.9°C 61.6°F16.4°C 71% 10.0 mph N16.1 kmh N 13.0 mph20.9 kmh 29.60 in1002.4 mb 0.00 in0.0 mm 0.00 in0.0 mm 0.22 in5.6 mm
03:35 PM 71.5°F21.9°C 61.6°F16.4°C 71% 11.0 mph N17.7 kmh N 19.0 mph30.6 kmh 29.60 in1002.4 mb 0.00 in0.0 mm 0.00 in0.0 mm 0.22 in5.6 mm
03:40 PM 72.0°F22.2°C 61.7°F16.5°C 70% 5.0 mph N8.0 kmh N 19.0 mph30.6 kmh 29.61 in1002.7 mb 0.00 in0.0 mm 0.00 in0.0 mm 0.22 in5.6 mm
03:45 PM 72.1°F22.3°C 61.8°F16.6°C 70% 18.0 mph N29.0 kmh N 18.0 mph29.0 kmh 29.61 in1002.7 mb 0.00 in0.0 mm 0.00 in0.0 mm 0.22 in5.6 mm
03:50 PM 71.9°F22.2°C 61.2°F16.2°C 69% 7.0 mph N11.3 kmh N 18.0 mph29.0 kmh 29.61 in1002.7 mb 0.00 in0.0 mm 0.00 in0.0 mm 0.22 in5.6 mm
03:55 PM 71.6°F22.0°C 61.3°F16.3°C 70% 8.0 mph N12.9 kmh N 18.0 mph29.0 kmh 29.61 in1002.7 mb 0.00 in0.0 mm 0.00 in0.0 mm 0.22 in5.6 mm
04:00 PM 71.4°F21.9°C 61.1°F16.2°C 70% 13.0 mph N20.9 kmh N 13.0 mph20.9 kmh 29.61 in1002.7 mb 0.00 in0.0 mm 0.00 in0.0 mm 0.22 in5.6 mm
04:05 PM 71.5°F21.9°C 60.8°F16.0°C 69% 5.0 mph N8.0 kmh N 17.0 mph27.4 kmh 29.61 in1002.7 mb 0.00 in0.0 mm 0.00 in0.0 mm 0.22 in5.6 mm
04:10 PM 71.2°F21.8°C 60.1°F15.6°C 68% 7.0 mph N11.3 kmh N 17.0 mph27.4 kmh 29.62 in1003.0 mb 0.00 in0.0 mm 0.00 in0.0 mm 0.22 in5.6 mm
04:15 PM 70.7°F21.5°C 60.5°F15.8°C 70% 13.0 mph N20.9 kmh N 16.0 mph25.7 kmh 29.62 in1003.0 mb 0.00 in0.0 mm 0.00 in0.0 mm 0.22 in5.6 mm
04:20 PM 70.6°F21.4°C 60.8°F16.0°C 71% 9.0 mph N14.5 kmh N 17.0 mph27.4 kmh 29.62 in1003.0 mb 0.00 in0.0 mm 0.00 in0.0 mm 0.22 in5.6 mm
04:25 PM 70.7°F21.5°C 60.5°F15.8°C 70% 4.0 mph N6.4 kmh N 17.0 mph27.4 kmh 29.62 in1003.0 mb 0.00 in0.0 mm 0.00 in0.0 mm 0.22 in5.6 mm
04:30 PM 70.6°F21.4°C 60.0°F15.6°C 69% 5.0 mph N8.0 kmh N 9.0 mph14.5 kmh 29.63 in1003.4 mb 0.00 in0.0 mm 0.00 in0.0 mm 0.22 in5.6 mm
04:35 PM 70.2°F21.2°C 59.6°F15.3°C 69% 7.0 mph N11.3 kmh N 18.0 mph29.0 kmh 29.63 in1003.4 mb 0.00 in0.0 mm 0.00 in0.0 mm 0.22 in5.6 mm
04:40 PM 70.0°F21.1°C 59.4°F15.2°C 69% 3.0 mph N4.8 kmh N 18.0 mph29.0 kmh 29.63 in1003.4 mb 0.00 in0.0 mm 0.00 in0.0 mm 0.22 in5.6 mm
04:45 PM 70.1°F21.2°C 60.3°F15.7°C 71% 9.0 mph N14.5 kmh N 9.0 mph14.5 kmh 29.62 in1003.0 mb 0.00 in0.0 mm 0.00 in0.0 mm 0.22 in5.6 mm
04:50 PM 70.1°F21.2°C 59.9°F15.5°C 70% 8.0 mph N12.9 kmh N 15.0 mph24.1 kmh 29.63 in1003.4 mb 0.00 in0.0 mm 0.00 in0.0 mm 0.22 in5.6 mm
04:55 PM 69.8°F21.0°C 59.6°F15.3°C 70% 7.0 mph N11.3 kmh N 17.0 mph27.4 kmh 29.63 in1003.4 mb 0.00 in0.0 mm 0.00 in0.0 mm 0.22 in5.6 mm
05:00 PM 69.5°F20.8°C 59.7°F15.4°C 71% 6.0 mph N9.7 kmh N 12.0 mph19.3 kmh 29.63 in1003.4 mb 0.00 in0.0 mm 0.00 in0.0 mm 0.22 in5.6 mm
05:05 PM 69.1°F20.6°C 59.3°F15.2°C 71% 5.0 mph N8.0 kmh N 16.0 mph25.7 kmh 29.63 in1003.4 mb 0.00 in0.0 mm 0.00 in0.0 mm 0.22 in5.6 mm
05:10 PM 68.7°F20.4°C 59.7°F15.4°C 73% 10.0 mph N16.1 kmh N 22.0 mph35.4 kmh 29.63 in1003.4 mb 0.00 in0.0 mm 0.00 in0.0 mm 0.22 in5.6 mm
05:15 PM 68.6°F20.3°C 59.6°F15.3°C 73% 7.0 mph N11.3 kmh N 9.0 mph14.5 kmh 29.64 in1003.7 mb 0.00 in0.0 mm 0.00 in0.0 mm 0.22 in5.6 mm
05:20 PM 68.7°F20.4°C 59.7°F15.4°C 73% Calm Calm 14.0 mph22.5 kmh 29.64 in1003.7 mb 0.00 in0.0 mm 0.00 in0.0 mm 0.22 in5.6 mm
05:25 PM 68.7°F20.4°C 59.7°F15.4°C 73% 5.0 mph N8.0 kmh N 18.0 mph29.0 kmh 29.64 in1003.7 mb 0.00 in0.0 mm 0.00 in0.0 mm 0.22 in5.6 mm
05:30 PM 68.5°F20.3°C 59.5°F15.3°C 73% 5.0 mph N8.0 kmh N 7.0 mph11.3 kmh 29.64 in1003.7 mb 0.00 in0.0 mm 0.00 in0.0 mm 0.22 in5.6 mm
05:35 PM 67.8°F19.9°C 59.6°F15.3°C 75% Calm Calm 14.0 mph22.5 kmh 29.64 in1003.7 mb 0.00 in0.0 mm 0.00 in0.0 mm 0.22 in5.6 mm
05:40 PM 67.2°F19.6°C 59.4°F15.2°C 76% 3.0 mph N4.8 kmh N 14.0 mph22.5 kmh 29.64 in1003.7 mb 0.00 in0.0 mm 0.00 in0.0 mm 0.22 in5.6 mm
05:45 PM 66.9°F19.4°C 59.8°F15.4°C 78% 2.0 mph N3.2 kmh N 2.0 mph3.2 kmh 29.64 in1003.7 mb 0.00 in0.0 mm 0.00 in0.0 mm 0.22 in5.6 mm
05:50 PM 67.2°F19.6°C 59.8°F15.4°C 77% 1.0 mph N1.6 kmh N 7.0 mph11.3 kmh 29.65 in1004.1 mb 0.00 in0.0 mm 0.00 in0.0 mm 0.22 in5.6 mm
05:55 PM 67.6°F19.8°C 60.1°F15.6°C 77% 2.0 mph N3.2 kmh N 7.0 mph11.3 kmh 29.65 in1004.1 mb 0.00 in0.0 mm 0.00 in0.0 mm 0.22 in5.6 mm
06:00 PM 67.9°F19.9°C 60.1°F15.6°C 76% Calm Calm 2.0 mph3.2 kmh 29.65 in1004.1 mb 0.00 in0.0 mm 0.00 in0.0 mm 0.22 in5.6 mm
06:05 PM 67.9°F19.9°C 60.1°F15.6°C 76% Calm Calm 6.0 mph9.7 kmh 29.65 in1004.1 mb 0.00 in0.0 mm 0.00 in0.0 mm 0.22 in5.6 mm
06:10 PM 68.0°F20.0°C 60.2°F15.7°C 76% 3.0 mph N4.8 kmh N 6.0 mph9.7 kmh 29.65 in1004.1 mb 0.00 in0.0 mm 0.00 in0.0 mm 0.22 in5.6 mm
06:15 PM 67.8°F19.9°C 59.6°F15.3°C 75% Calm Calm 5.0 mph8.0 kmh 29.65 in1004.1 mb 0.00 in0.0 mm 0.00 in0.0 mm 0.22 in5.6 mm
06:20 PM 67.6°F19.8°C 59.4°F15.2°C 75% Calm Calm 5.0 mph8.0 kmh 29.65 in1004.1 mb 0.00 in0.0 mm 0.00 in0.0 mm 0.22 in5.6 mm
06:25 PM 67.0°F19.4°C 58.5°F14.7°C 74% 3.0 mph N4.8 kmh N 7.0 mph11.3 kmh 29.66 in1004.4 mb 0.00 in0.0 mm 0.00 in0.0 mm 0.22 in5.6 mm
06:30 PM 66.3°F19.1°C 58.2°F14.6°C 75% 1.0 mph N1.6 kmh N 3.0 mph4.8 kmh 29.67 in1004.7 mb 0.00 in0.0 mm 0.00 in0.0 mm 0.22 in5.6 mm
06:35 PM 65.8°F18.8°C 58.4°F14.7°C 77% Calm Calm 4.0 mph6.4 kmh 29.67 in1004.7 mb 0.00 in0.0 mm 0.00 in0.0 mm 0.22 in5.6 mm
06:40 PM 65.5°F18.6°C 58.5°F14.7°C 78% Calm Calm 4.0 mph6.4 kmh 29.67 in1004.7 mb 0.00 in0.0 mm 0.00 in0.0 mm 0.22 in5.6 mm
06:45 PM 65.4°F18.6°C 58.7°F14.8°C 79% Calm Calm -- 29.68 in1005.1 mb 0.00 in0.0 mm 0.00 in0.0 mm 0.22 in5.6 mm
06:50 PM 65.3°F18.5°C 59.0°F15.0°C 80% Calm Calm 2.0 mph3.2 kmh 29.68 in1005.1 mb 0.00 in0.0 mm 0.00 in0.0 mm 0.22 in5.6 mm
06:55 PM 65.3°F18.5°C 59.0°F15.0°C 80% Calm Calm 5.0 mph8.0 kmh 29.68 in1005.1 mb 0.00 in0.0 mm 0.00 in0.0 mm 0.22 in5.6 mm
07:00 PM 65.2°F18.4°C 58.9°F14.9°C 80% 2.0 mph N3.2 kmh N 3.0 mph4.8 kmh 29.68 in1005.1 mb 0.00 in0.0 mm 0.00 in0.0 mm 0.22 in5.6 mm
07:05 PM 65.2°F18.4°C 58.9°F14.9°C 80% 2.0 mph N3.2 kmh N 3.0 mph4.8 kmh 29.68 in1005.1 mb 0.00 in0.0 mm 0.00 in0.0 mm 0.22 in5.6 mm
07:10 PM 65.0°F18.3°C 58.7°F14.8°C 80% Calm Calm 6.0 mph9.7 kmh 29.68 in1005.1 mb 0.00 in0.0 mm 0.00 in0.0 mm 0.22 in5.6 mm
07:15 PM 64.8°F18.2°C 58.8°F14.9°C 81% 1.0 mph N1.6 kmh N 2.0 mph3.2 kmh 29.68 in1005.1 mb 0.00 in0.0 mm 0.00 in0.0 mm 0.22 in5.6 mm
07:20 PM 64.5°F18.1°C 58.6°F14.8°C 81% Calm Calm 4.0 mph6.4 kmh 29.68 in1005.1 mb 0.00 in0.0 mm 0.00 in0.0 mm 0.22 in5.6 mm
07:25 PM 64.1°F17.8°C 58.2°F14.6°C 81% 1.0 mph N1.6 kmh N 4.0 mph6.4 kmh 29.69 in1005.4 mb 0.00 in0.0 mm 0.00 in0.0 mm 0.22 in5.6 mm
07:30 PM 63.8°F17.7°C 58.2°F14.6°C 82% 1.0 mph N1.6 kmh N 1.0 mph1.6 kmh 29.69 in1005.4 mb 0.00 in0.0 mm 0.00 in0.0 mm 0.22 in5.6 mm
07:35 PM 63.5°F17.5°C 58.3°F14.6°C 83% 2.0 mph N3.2 kmh N 3.0 mph4.8 kmh 29.69 in1005.4 mb 0.00 in0.0 mm 0.00 in0.0 mm 0.22 in5.6 mm
07:40 PM 63.2°F17.3°C 58.0°F14.4°C 83% 1.0 mph N1.6 kmh N 3.0 mph4.8 kmh 29.70 in1005.8 mb 0.00 in0.0 mm 0.00 in0.0 mm 0.22 in5.6 mm
07:45 PM 62.9°F17.2°C 58.0°F14.4°C 84% 3.0 mph N4.8 kmh N 3.0 mph4.8 kmh 29.69 in1005.4 mb 0.00 in0.0 mm 0.00 in0.0 mm 0.22 in5.6 mm
07:50 PM 62.6°F17.0°C 57.7°F14.3°C 84% Calm Calm 3.0 mph4.8 kmh 29.69 in1005.4 mb 0.00 in0.0 mm 0.00 in0.0 mm 0.22 in5.6 mm
07:55 PM 62.4°F16.9°C 57.5°F14.2°C 84% 3.0 mph N4.8 kmh N 3.0 mph4.8 kmh 29.69 in1005.4 mb 0.00 in0.0 mm 0.00 in0.0 mm 0.22 in5.6 mm
08:00 PM 62.1°F16.7°C 57.2°F14.0°C 84% 2.0 mph N3.2 kmh N 2.0 mph3.2 kmh 29.70 in1005.8 mb 0.00 in0.0 mm 0.00 in0.0 mm 0.22 in5.6 mm
08:05 PM 61.9°F16.6°C 57.4°F14.1°C 85% 3.0 mph N4.8 kmh N 8.0 mph12.9 kmh 29.70 in1005.8 mb 0.00 in0.0 mm 0.00 in0.0 mm 0.22 in5.6 mm
08:10 PM 61.9°F16.6°C 57.4°F14.1°C 85% Calm Calm 9.0 mph14.5 kmh 29.70 in1005.8 mb 0.00 in0.0 mm 0.00 in0.0 mm 0.22 in5.6 mm
08:15 PM 61.8°F16.6°C 57.3°F14.1°C 85% Calm Calm 2.0 mph3.2 kmh 29.70 in1005.8 mb 0.00 in0.0 mm 0.00 in0.0 mm 0.22 in5.6 mm
08:20 PM 61.7°F16.5°C 57.2°F14.0°C 85% 1.0 mph N1.6 kmh N 3.0 mph4.8 kmh 29.71 in1006.1 mb 0.00 in0.0 mm 0.00 in0.0 mm 0.22 in5.6 mm
08:25 PM 61.5°F16.4°C 57.0°F13.9°C 85% 2.0 mph N3.2 kmh N 3.0 mph4.8 kmh 29.71 in1006.1 mb 0.00 in0.0 mm 0.00 in0.0 mm 0.22 in5.6 mm
08:30 PM 61.3°F16.3°C 56.8°F13.8°C 85% 2.0 mph N3.2 kmh N 3.0 mph4.8 kmh 29.71 in1006.1 mb 0.00 in0.0 mm 0.00 in0.0 mm 0.22 in5.6 mm
08:35 PM 61.2°F16.2°C 56.7°F13.7°C 85% Calm Calm 6.0 mph9.7 kmh 29.72 in1006.4 mb 0.00 in0.0 mm 0.00 in0.0 mm 0.22 in5.6 mm
08:40 PM 61.0°F16.1°C 56.5°F13.6°C 85% 3.0 mph N4.8 kmh N 6.0 mph9.7 kmh 29.72 in1006.4 mb 0.00 in0.0 mm 0.00 in0.0 mm 0.22 in5.6 mm
08:45 PM 60.9°F16.1°C 56.4°F13.6°C 85% 1.0 mph N1.6 kmh N 3.0 mph4.8 kmh 29.72 in1006.4 mb 0.00 in0.0 mm 0.00 in0.0 mm 0.22 in5.6 mm
08:50 PM 60.7°F15.9°C 56.2°F13.4°C 85% 1.0 mph N1.6 kmh N 5.0 mph8.0 kmh 29.73 in1006.8 mb 0.00 in0.0 mm 0.00 in0.0 mm 0.22 in5.6 mm
08:55 PM 60.5°F15.8°C 56.3°F13.5°C 86% 3.0 mph N4.8 kmh N 5.0 mph8.0 kmh 29.73 in1006.8 mb 0.00 in0.0 mm 0.00 in0.0 mm 0.22 in5.6 mm
09:00 PM 60.2°F15.7°C 56.0°F13.3°C 86% 2.0 mph N3.2 kmh N 3.0 mph4.8 kmh 29.73 in1006.8 mb 0.00 in0.0 mm 0.00 in0.0 mm 0.22 in5.6 mm
09:05 PM 60.1°F15.6°C 55.9°F13.3°C 86% 2.0 mph N3.2 kmh N 7.0 mph11.3 kmh 29.73 in1006.8 mb 0.00 in0.0 mm 0.00 in0.0 mm 0.22 in5.6 mm
09:10 PM 59.9°F15.5°C 55.4°F13.0°C 85% 4.0 mph N6.4 kmh N 7.0 mph11.3 kmh 29.73 in1006.8 mb 0.00 in0.0 mm 0.00 in0.0 mm 0.22 in5.6 mm
09:15 PM 59.7°F15.4°C 55.2°F12.9°C 85% 1.0 mph N1.6 kmh N 2.0 mph3.2 kmh 29.74 in1007.1 mb 0.00 in0.0 mm 0.00 in0.0 mm 0.22 in5.6 mm
09:20 PM 59.6°F15.3°C 54.8°F12.7°C 84% Calm Calm 7.0 mph11.3 kmh 29.74 in1007.1 mb 0.00 in0.0 mm 0.00 in0.0 mm 0.22 in5.6 mm
09:25 PM 59.5°F15.3°C 54.7°F12.6°C 84% Calm Calm 9.0 mph14.5 kmh 29.74 in1007.1 mb 0.00 in0.0 mm 0.00 in0.0 mm 0.22 in5.6 mm
09:30 PM 59.3°F15.2°C 54.8°F12.7°C 85% 1.0 mph N1.6 kmh N 3.0 mph4.8 kmh 29.75 in1007.5 mb 0.00 in0.0 mm 0.00 in0.0 mm 0.22 in5.6 mm
09:35 PM 59.1°F15.1°C 54.6°F12.6°C 85% 2.0 mph N3.2 kmh N 5.0 mph8.0 kmh 29.75 in1007.5 mb 0.00 in0.0 mm 0.00 in0.0 mm 0.22 in5.6 mm
09:40 PM 58.9°F14.9°C 54.4°F12.4°C 85% Calm Calm 5.0 mph8.0 kmh 29.75 in1007.5 mb 0.00 in0.0 mm 0.00 in0.0 mm 0.22 in5.6 mm
09:45 PM 58.7°F14.8°C 54.5°F12.5°C 86% 2.0 mph N3.2 kmh N 3.0 mph4.8 kmh 29.75 in1007.5 mb 0.00 in0.0 mm 0.00 in0.0 mm 0.22 in5.6 mm
09:50 PM 58.5°F14.7°C 54.3°F12.4°C 86% 1.0 mph N1.6 kmh N 4.0 mph6.4 kmh 29.76 in1007.8 mb 0.00 in0.0 mm 0.00 in0.0 mm 0.22 in5.6 mm
09:55 PM 58.3°F14.6°C 54.1°F12.3°C 86% 1.0 mph N1.6 kmh N 5.0 mph8.0 kmh 29.76 in1007.8 mb 0.00 in0.0 mm 0.00 in0.0 mm 0.22 in5.6 mm
10:00 PM 58.2°F14.6°C 54.0°F12.2°C 86% 1.0 mph N1.6 kmh N 1.0 mph1.6 kmh 29.76 in1007.8 mb 0.00 in0.0 mm 0.00 in0.0 mm 0.22 in5.6 mm
10:05 PM 58.0°F14.4°C 53.5°F11.9°C 85% 2.0 mph N3.2 kmh N 5.0 mph8.0 kmh 29.76 in1007.8 mb 0.00 in0.0 mm 0.00 in0.0 mm 0.22 in5.6 mm
10:10 PM 58.0°F14.4°C 53.8°F12.1°C 86% 2.0 mph N3.2 kmh N 5.0 mph8.0 kmh 29.76 in1007.8 mb 0.00 in0.0 mm 0.00 in0.0 mm 0.22 in5.6 mm
10:15 PM 57.8°F14.3°C 53.7°F12.1°C 86% Calm Calm 2.0 mph3.2 kmh 29.77 in1008.1 mb 0.00 in0.0 mm 0.00 in0.0 mm 0.22 in5.6 mm
10:20 PM 57.5°F14.2°C 53.7°F12.1°C 87% 2.0 mph N3.2 kmh N 4.0 mph6.4 kmh 29.77 in1008.1 mb 0.00 in0.0 mm 0.00 in0.0 mm 0.22 in5.6 mm
10:25 PM 57.2°F14.0°C 53.1°F11.7°C 86% 1.0 mph N1.6 kmh N 5.0 mph8.0 kmh 29.77 in1008.1 mb 0.00 in0.0 mm 0.00 in0.0 mm 0.22 in5.6 mm
10:30 PM 56.9°F13.8°C 52.8°F11.6°C 86% 3.0 mph N4.8 kmh N 4.0 mph6.4 kmh 29.78 in1008.5 mb 0.00 in0.0 mm 0.00 in0.0 mm 0.22 in5.6 mm
10:35 PM 56.6°F13.7°C 52.5°F11.4°C 86% Calm Calm 8.0 mph12.9 kmh 29.78 in1008.5 mb 0.00 in0.0 mm 0.00 in0.0 mm 0.22 in5.6 mm
10:40 PM 56.4°F13.6°C 52.3°F11.3°C 86% 1.0 mph N1.6 kmh N 8.0 mph12.9 kmh 29.78 in1008.5 mb 0.00 in0.0 mm 0.00 in0.0 mm 0.22 in5.6 mm
10:45 PM 56.2°F13.4°C 52.1°F11.2°C 86% 3.0 mph N4.8 kmh N 4.0 mph6.4 kmh 29.79 in1008.8 mb 0.00 in0.0 mm 0.00 in0.0 mm 0.22 in5.6 mm
10:50 PM 56.0°F13.3°C 51.9°F11.1°C 86% 3.0 mph N4.8 kmh N 4.0 mph6.4 kmh 29.78 in1008.5 mb 0.00 in0.0 mm 0.00 in0.0 mm 0.22 in5.6 mm
10:55 PM 55.7°F13.2°C 51.9°F11.1°C 87% 2.0 mph N3.2 kmh N 5.0 mph8.0 kmh 29.78 in1008.5 mb 0.00 in0.0 mm 0.00 in0.0 mm 0.22 in5.6 mm
11:00 PM 55.5°F13.1°C 51.7°F10.9°C 87% 3.0 mph N4.8 kmh N 3.0 mph4.8 kmh 29.79 in1008.8 mb 0.00 in0.0 mm 0.00 in0.0 mm 0.22 in5.6 mm
11:05 PM 55.2°F12.9°C 51.7°F10.9°C 88% Calm Calm 7.0 mph11.3 kmh 29.78 in1008.5 mb 0.00 in0.0 mm 0.00 in0.0 mm 0.22 in5.6 mm
11:10 PM 55.0°F12.8°C 51.5°F10.8°C 88% 4.0 mph N6.4 kmh N 7.0 mph11.3 kmh 29.79 in1008.8 mb 0.00 in0.0 mm 0.00 in0.0 mm 0.22 in5.6 mm
11:15 PM 54.9°F12.7°C 51.4°F10.8°C 88% Calm Calm 3.0 mph4.8 kmh 29.79 in1008.8 mb 0.00 in0.0 mm 0.00 in0.0 mm 0.22 in5.6 mm
11:20 PM 54.8°F12.7°C 51.3°F10.7°C 88% 1.0 mph N1.6 kmh N 6.0 mph9.7 kmh 29.79 in1008.8 mb 0.00 in0.0 mm 0.00 in0.0 mm 0.22 in5.6 mm
11:25 PM 54.6°F12.6°C 51.1°F10.6°C 88% 1.0 mph N1.6 kmh N 6.0 mph9.7 kmh 29.79 in1008.8 mb 0.00 in0.0 mm 0.00 in0.0 mm 0.22 in5.6 mm
11:30 PM 54.5°F12.5°C 51.3°F10.7°C 89% Calm Calm 2.0 mph3.2 kmh 29.79 in1008.8 mb 0.00 in0.0 mm 0.00 in0.0 mm 0.22 in5.6 mm
11:35 PM 54.4°F12.4°C 50.9°F10.5°C 88% 1.0 mph N1.6 kmh N 4.0 mph6.4 kmh 29.79 in1008.8 mb 0.00 in0.0 mm 0.00 in0.0 mm 0.22 in5.6 mm
11:40 PM 54.3°F12.4°C 50.8°F10.4°C 88% Calm Calm 6.0 mph9.7 kmh 29.80 in1009.1 mb 0.00 in0.0 mm 0.00 in0.0 mm 0.22 in5.6 mm
11:45 PM 54.2°F12.3°C 50.7°F10.4°C 88% Calm Calm 1.0 mph1.6 kmh 29.80 in1009.1 mb 0.00 in0.0 mm 0.00 in0.0 mm 0.22 in5.6 mm
11:50 PM 54.2°F12.3°C 50.7°F10.4°C 88% 1.0 mph N1.6 kmh N 3.0 mph4.8 kmh 29.80 in1009.1 mb 0.00 in0.0 mm 0.00 in0.0 mm 0.22 in5.6 mm
11:55 PM 54.1°F12.3°C 50.9°F10.5°C 89% 7.0 mph N11.3 kmh N 7.0 mph11.3 kmh 29.80 in1009.1 mb 0.00 in0.0 mm 0.00 in0.0 mm 0.22 in5.6 mm